AERODROME FORECAST
Output Produced by Aerodrome Forecast
found at http://aviationweather.gov/adds/metars/
 

Data at: 1841 UTC 21 Aug 2019

TAF for:WIII (Jakarta Intl, --, ID) issued at 1700 UTC 21 Aug 2019
Text:TAF WIII 211700Z 2118/2224 11005KT 8000 FEW020
Forecast period:1800 UTC 21 August 2019 to 0200 UTC 22 August 2019
Forecast type:FROM: standard forecast or significant change
Winds:from the ESE (110 degrees) at 6 MPH (5 knots; 2.6 m/s)
Visibility: 5 sm ( 8 km)
Ceiling:at least 12,000 feet AGL
Clouds: few clouds at 2000 feet AGL
Text:BECMG 2202/2204 07010G20KT
Forecast period:0200 to 1300 UTC 22 August 2019
Forecast type:BECOMING: Conditions expected to become as follows by 0400 UTC 22 August 2019
Winds:from the ENE (70 degrees) at 12 MPH (10 knots; 5.1 m/s) gusting to 23 MPH (20 knots; 10.3 m/s)
Visibility: 5 sm ( 8 km)
Ceiling:at least 12,000 feet AGL
Clouds: few clouds at 2000 feet AGL
Text:BECMG 2213/2215 10005KT
Forecast period:1300 UTC 22 August 2019 to 0000 UTC 23 August 2019
Forecast type:BECOMING: Conditions expected to become as follows by 1500 UTC 22 August 2019
Winds:from the E (100 degrees) at 6 MPH (5 knots; 2.6 m/s)
Visibility: 5 sm ( 8 km)
Ceiling:at least 12,000 feet AGL
Clouds: few clouds at 2000 feet AGL